Aérodrome :
LOGIN :

S'inscrire | Disclaimer

   EN    FR    IT 

 










Légende :    VFR   VFR Marginal   IFR   IFR Intensif   IFR Très Intensif
Visi : 
Plafond : 
>= 8 km
>= 3000ft
5 à 8 km
1000 à 3000 ft
1500m à 5 km
500 à 1000 ft
800 à 1500m
200 à 500 ft
< 800m
< 200 ft
Symboles :   Orages  Brouillard  Fortes neiges  Fortes précipitations  Vent > 20 kt
SIGMETs :   Divers  Orages  Givrage  Turbulence  Onde Orograph.  Cendres Volcan.







- Altitude de l'aérodrome : 56 ft
- Code IATA : BZR
- Voir les cartes d'approche


LFMU - Beziers / Vias

DERNIER METAR :
  • 241700Z AUTO 19009KT CAVOK 26/12 Q1016 NOSIG

METARs EXPIRÉS :
  • 241630Z AUTO 19010KT CAVOK 28/12 Q1016 NOSIG
  • 241600Z AUTO 19009KT CAVOK 28/13 Q1016 NOSIG
  • 241530Z AUTO 17008KT 140V210 CAVOK 30/11 Q1016 NOSIG
  • 241500Z AUTO 16008KT 110V190 CAVOK 30/12 Q1016 NOSIG
  • 241430Z AUTO 19007KT 140V250 CAVOK 31/12 Q1017 NOSIG

TAF TAF LFMU
Valide du 24 à 15h jusqu'au 25 à 15h UTC


241400Z 2415/2515 VRB02KT CAVOK
TEMPO 2415/2420 18012KT
TEMPO 2503/2506 2000 BR
BECMG 2511/2513 18012KT
ATIS : +33 4 67 90 88 88
Pas de NOTAMs connus pour ce terrain.



MET'MAP, la Météo Aéronautique d'un coup d'oeil ! - Copyright ORBIFLY Décembre 2007 - Disclaimer

ORBIFLY MET'MAP TEAM :

Programmation & Développement : Alexandra Zaïnal
Conception & Développement : Baudouin d'Aumeries
Co-Programmation & Développement : Marc-Olivier Méhu
Soutien technique & logistique : Manuel Goepfert

Contact : metmap@orbifly.com




SOURCES & CREDITS :

   NOAA